Homestead Gen Aviation, FL

11:01 AM EST on January 22, 2018 (GMT -0500)
Skydive Miami | | Change Station

Elev 9 ft 25.50 °N, 80.55 °W | Updated 15 seconds ago

Partly Cloudy
Partly Cloudy
73.8 °F
Feels Like 74 °F
N
12.1
Wind Variable Wind from North
Gusts 16.1 mph

Today
High -- | Low -- °F
--% Chance of Precip.
Yesterday
High -- | Low -- °F
Precip. -- in
Pressure 30.14 in
Visibility 10.0 miles
Clouds Clear
Heat Index 74 °F
Dew Point 67 °F
Humidity 79%
Rainfall 0.00 in
Snow Depth Not available.
7:08 AM 5:58 PM
Waxing Crescent, 27% visible
METAR KHST 221556Z AUTO 10008KT 10SM CLR 25/22 A3013 RMK AO2 SLP206 T02530216
Pressure 30.14 in
Visibility 10.0 miles
Clouds Clear
Heat Index 74 °F
Dew Point 67 °F
Humidity 79%
Rainfall 0.00 in
Snow Depth Not available.
7:08 AM 5:58 PM
Waxing Crescent, 27% visible
METAR KHST 221556Z AUTO 10008KT 10SM CLR 25/22 A3013 RMK AO2 SLP206 T02530216

Get Severe Weather Alerts

Thanks for signing up!

Be on the lookout for a verification email in your inbox.

You'll start receiving the daily forecast at 6 AM.

×

10-Day Weather Forecast

Almanac

Astronomy

Jan. 22, 2018 Rise Set
Actual Time
Civil Twilight
Nautical Twilight
Astronomical Twilight
Moon
Length of Visible Light
Length of Day
Tomorrow will be .
, % of the Moon is Illuminated

Today's Extremes

State Highs State Lows

Community

WunderPhotos

Category 6

Welcome to Category 6. This is the collective home for Weather Underground's featured writeups by Dr. Jeff Masters (right), Bob Henson (left), Chris Burt, and other regular contributors.

Nearby

Air Quality

  Air Quality AQ Index Pollutant
Not available.

Snow Depth

Station Depth Elevation

Earthquake Activity

City Distance Mag. Time & Date
Minimum magnitude displayed is 2.5.

Coastal Water Temperatures

Place Temperature

Stations

Nearby Weather Stations

Station Location Temp. Windchill Dew Point Humidity Wind Precip. Elev Updated Type
                   

Watches & Warnings

There are currently no watches in effect.